Time;durP1;ratioP1;P1;durP2;ratioP2;P2;SDS_P1;SDS_P2;PMS_P1;PMS_P2;Temp;Humidity;BMP_temperature;BMP_pressure;BME280_temperature;BME280_humidity;BME280_pressure;Samples;Min_cycle;Max_cycle;Signal;HPM_P1;HPM_P2
2021/07/23 00:01:40;;;;;;;11.32;5.45;;;;;;;21.60;52.16;100113.03;5069954;28;20043;-23
2021/07/23 00:04:05;;;;;;;11.63;5.15;;;;;;;21.42;53.48;100117.31;5069496;28;20492;-23
2021/07/23 00:06:31;;;;;;;10.70;5.65;;;;;;;21.54;52.58;100110.69;5069712;28;20028;-22
2021/07/23 00:08:57;;;;;;;11.85;6.63;;;;;;;21.43;53.55;100107.25;5069838;28;20111;-22
2021/07/23 00:11:22;;;;;;;9.60;4.65;;;;;;;21.30;52.54;100116.09;5069595;28;20028;-22
2021/07/23 00:13:48;;;;;;;10.10;5.78;;;;;;;21.05;52.86;100120.69;5069741;28;20476;-22
2021/07/23 00:16:13;;;;;;;12.57;5.57;;;;;;;21.17;53.49;100117.59;5069388;28;20037;-22
2021/07/23 00:18:39;;;;;;;12.88;6.15;;;;;;;21.16;53.97;100119.47;5069033;28;20192;-23
2021/07/23 00:21:04;;;;;;;14.25;6.70;;;;;;;21.40;52.78;100118.69;5051765;28;20687;-23
2021/07/23 00:23:30;;;;;;;13.02;7.18;;;;;;;21.14;53.68;100112.72;5069453;28;20037;-23
2021/07/23 00:25:55;;;;;;;34.83;15.57;;;;;;;21.44;52.57;100117.03;5069574;28;20094;-22
2021/07/23 00:28:21;;;;;;;28.88;14.38;;;;;;;21.22;52.95;100117.53;5051154;28;20028;-22
2021/07/23 00:30:46;;;;;;;35.05;16.42;;;;;;;21.21;52.83;100105.88;5069037;28;20032;-23
2021/07/23 00:33:12;;;;;;;18.48;9.45;;;;;;;21.07;53.00;100122.03;5069027;28;20036;-23
2021/07/23 00:35:37;;;;;;;19.48;8.82;;;;;;;21.22;52.65;100123.75;5069124;28;20028;-23
2021/07/23 00:38:03;;;;;;;14.93;8.43;;;;;;;20.56;53.58;100116.25;5068948;28;20033;-22
2021/07/23 00:40:28;;;;;;;19.33;8.98;;;;;;;20.86;54.30;100112.47;5068642;28;20094;-22
2021/07/23 00:42:54;;;;;;;15.35;7.72;;;;;;;20.81;53.91;100118.75;5068925;28;20029;-23
2021/07/23 00:45:19;;;;;;;14.68;7.47;;;;;;;20.81;53.21;100107.91;5068915;28;20051;-22
2021/07/23 00:47:46;;;;;;;12.18;6.95;;;;;;;20.36;54.57;100100.97;5067497;28;20107;-23
2021/07/23 00:50:13;;;;;;;16.27;8.43;;;;;;;20.55;54.48;100111.91;5050918;28;20048;-22
2021/07/23 00:52:39;;;;;;;17.65;10.05;;;;;;;20.91;54.15;100106.22;5050922;28;20489;-22
2021/07/23 00:55:05;;;;;;;33.33;15.18;;;;;;;20.61;54.66;100110.81;5050768;28;20032;-23
2021/07/23 00:57:30;;;;;;;26.63;13.52;;;;;;;20.88;54.14;100110.28;5068505;28;20039;-23
2021/07/23 00:59:56;;;;;;;25.52;14.40;;;;;;;20.48;55.13;100104.13;5068882;28;20485;-22
2021/07/23 01:02:22;;;;;;;28.65;13.15;;;;;;;20.22;55.84;100101.59;5068615;28;20098;-23
2021/07/23 01:04:48;;;;;;;21.25;11.93;;;;;;;20.22;56.27;100108.94;5034413;28;20039;-22
2021/07/23 01:07:13;;;;;;;20.08;11.65;;;;;;;20.34;55.92;100109.38;5050690;28;20135;-23
2021/07/23 01:09:39;;;;;;;33.88;18.02;;;;;;;20.12;56.66;100106.28;5068461;28;20024;-23
2021/07/23 01:12:05;;;;;;;54.88;29.58;;;;;;;19.95;56.81;100096.66;5068365;28;20032;-23
2021/07/23 01:14:31;;;;;;;42.20;21.02;;;;;;;20.22;56.29;100095.38;5068248;28;20039;-22
2021/07/23 01:16:57;;;;;;;22.55;12.85;;;;;;;20.36;55.91;100095.56;5050341;28;20125;-23
2021/07/23 01:19:24;;;;;;;20.27;11.18;;;;;;;20.51;55.65;100102.75;5050630;28;20029;-23
2021/07/23 01:21:50;;;;;;;15.50;8.52;;;;;;;20.72;55.03;100101.50;5068073;28;20814;-23
2021/07/23 01:24:15;;;;;;;17.90;9.52;;;;;;;20.11;56.33;100093.84;5033959;28;20039;-22
2021/07/23 01:26:41;;;;;;;13.95;8.13;;;;;;;20.01;56.80;100106.34;5049980;28;20029;-23
2021/07/23 01:29:07;;;;;;;27.45;11.95;;;;;;;20.03;56.28;100098.75;5050611;28;20028;-22
2021/07/23 01:31:32;;;;;;;31.52;14.07;;;;;;;20.13;56.04;100092.47;5067675;28;20024;-22
2021/07/23 01:33:58;;;;;;;21.10;11.07;;;;;;;19.96;56.71;100095.56;5067958;28;20039;-22
2021/07/23 01:36:25;;;;;;;18.23;9.70;;;;;;;20.03;56.69;100074.41;5067450;28;20028;-22
2021/07/23 01:38:50;;;;;;;25.30;11.98;;;;;;;20.48;55.58;100104.94;5067663;28;20036;-22
2021/07/23 01:41:16;;;;;;;18.83;9.23;;;;;;;20.23;56.01;100084.28;5049808;28;20051;-23
2021/07/23 01:43:41;;;;;;;18.05;8.77;;;;;;;20.39;55.80;100090.38;5049804;28;20476;-23
2021/07/23 01:46:07;;;;;;;17.58;9.30;;;;;;;20.43;56.04;100101.44;5049562;28;20052;-22
2021/07/23 01:48:32;;;;;;;19.13;8.45;;;;;;;20.41;55.68;100090.91;5067551;28;20406;-22
2021/07/23 01:50:58;;;;;;;17.38;7.53;;;;;;;20.37;56.55;100098.00;5067480;28;20060;-22
2021/07/23 01:53:23;;;;;;;13.90;7.10;;;;;;;20.66;55.06;100089.91;5068066;28;20388;-23
2021/07/23 01:55:49;;;;;;;10.95;6.85;;;;;;;20.59;55.13;100088.63;5067671;28;20020;-22
2021/07/23 01:58:14;;;;;;;12.07;6.35;;;;;;;20.70;55.03;100095.56;5067465;28;20028;-23
2021/07/23 02:00:40;;;;;;;11.25;6.13;;;;;;;20.29;55.28;100087.75;5067265;28;20036;-22
2021/07/23 02:03:05;;;;;;;16.48;8.90;;;;;;;20.25;55.57;100100.25;5067463;28;20025;-23
2021/07/23 02:05:31;;;;;;;23.42;9.68;;;;;;;20.70;54.91;100103.69;5067521;28;20028;-23
2021/07/23 02:07:57;;;;;;;25.55;12.05;;;;;;;20.41;55.39;100093.63;5067251;28;20025;-22
2021/07/23 02:10:23;;;;;;;19.40;10.07;;;;;;;19.86;56.90;100095.66;5049304;28;20043;-22
2021/07/23 02:12:49;;;;;;;18.67;10.13;;;;;;;19.75;57.59;100091.38;5067729;28;20024;-22
2021/07/23 02:15:14;;;;;;;17.05;9.23;;;;;;;19.97;57.65;100093.69;5067321;28;20032;-23
2021/07/23 02:17:40;;;;;;;13.02;8.02;;;;;;;20.14;57.20;100090.56;5067289;28;20067;-22
2021/07/23 02:20:06;;;;;;;11.77;6.65;;;;;;;19.98;56.83;100095.28;5067448;28;20036;-23
2021/07/23 02:22:31;;;;;;;12.55;6.93;;;;;;;20.25;56.42;100087.50;5067021;28;20021;-23
2021/07/23 02:24:57;;;;;;;13.73;6.93;;;;;;;20.23;56.43;100083.47;5067456;28;20029;-22
2021/07/23 02:27:22;;;;;;;35.50;17.42;;;;;;;20.45;55.11;100093.84;5067239;28;20037;-22
2021/07/23 02:29:48;;;;;;;27.48;13.02;;;;;;;20.20;56.43;100087.53;5067426;28;20442;-22
2021/07/23 02:32:13;;;;;;;13.52;7.97;;;;;;;20.38;55.39;100091.47;5066884;28;20089;-22
2021/07/23 02:34:38;;;;;;;11.82;5.72;;;;;;;20.59;55.63;100094.03;5067005;28;20488;-22
2021/07/23 02:37:04;;;;;;;13.68;7.32;;;;;;;20.93;55.07;100098.59;5067265;28;20032;-21
2021/07/23 02:39:29;;;;;;;13.70;6.25;;;;;;;21.17;53.89;100102.13;5067216;28;20039;-23
2021/07/23 02:41:55;;;;;;;9.60;5.15;;;;;;;21.01;53.25;100103.38;5066883;28;20028;-23
2021/07/23 02:44:20;;;;;;;8.07;5.30;;;;;;;20.80;53.99;100106.31;5066873;28;20029;-22
2021/07/23 02:46:46;;;;;;;9.38;5.70;;;;;;;20.99;53.90;100097.44;5066721;28;20029;-23
2021/07/23 02:49:11;;;;;;;10.52;5.38;;;;;;;20.70;54.19;100100.16;5066777;28;20044;-22
2021/07/23 02:51:37;;;;;;;19.25;5.95;;;;;;;20.52;55.01;100101.66;5067038;28;20035;-22
2021/07/23 02:54:02;;;;;;;11.63;5.55;;;;;;;20.29;56.65;100090.47;5066733;28;20488;-23
2021/07/23 02:56:28;;;;;;;11.05;5.38;;;;;;;20.18;56.40;100105.97;5066860;28;20059;-23
2021/07/23 02:58:53;;;;;;;12.90;5.90;;;;;;;19.76;57.72;100090.28;5066950;28;20028;-23
2021/07/23 03:01:19;;;;;;;9.75;5.57;;;;;;;19.83;58.15;100105.09;5066829;28;20393;-23
2021/07/23 03:03:44;;;;;;;9.23;5.38;;;;;;;20.06;57.49;100100.94;5066798;28;20409;-23
2021/07/23 03:06:10;;;;;;;10.48;5.57;;;;;;;20.00;57.75;100099.34;5066805;28;20411;-23
2021/07/23 03:08:35;;;;;;;10.52;6.18;;;;;;;20.14;57.33;100093.28;5066644;28;20104;-22
2021/07/23 03:11:01;;;;;;;8.13;4.97;;;;;;;20.17;56.77;100082.69;5069885;28;20036;-22
2021/07/23 03:13:27;;;;;;;11.13;5.90;;;;;;;20.21;57.28;100104.63;5070460;28;20029;-22
2021/07/23 03:15:52;;;;;;;9.48;5.88;;;;;;;20.38;57.01;100105.00;5070501;28;20396;-23
2021/07/23 03:18:18;;;;;;;12.27;6.38;;;;;;;20.62;56.31;100098.91;5070926;28;20043;-22
2021/07/23 03:20:44;;;;;;;12.35;6.90;;;;;;;20.45;56.42;100094.66;5070177;28;20033;-22
2021/07/23 03:23:09;;;;;;;11.07;6.57;;;;;;;20.54;55.98;100102.19;5070272;28;20025;-23
2021/07/23 03:25:35;;;;;;;10.30;6.60;;;;;;;20.63;56.13;100112.13;5070431;28;20040;-22
2021/07/23 03:28:01;;;;;;;16.30;6.63;;;;;;;20.56;56.53;100106.22;5052350;28;20480;-23
2021/07/23 03:30:27;;;;;;;12.50;6.22;;;;;;;20.46;56.62;100107.09;5069845;28;20056;-22
2021/07/23 03:32:53;;;;;;;11.98;6.95;;;;;;;20.42;56.40;100105.25;5070005;28;20032;-22
2021/07/23 03:35:18;;;;;;;12.57;6.43;;;;;;;20.48;56.49;100114.97;5069807;28;20059;-22
2021/07/23 03:37:44;;;;;;;12.10;6.75;;;;;;;20.23;57.29;100097.03;5070434;28;20039;-23
2021/07/23 03:40:10;;;;;;;13.88;6.93;;;;;;;20.55;56.41;100114.63;5070264;28;20037;-23
2021/07/23 03:42:35;;;;;;;17.45;8.32;;;;;;;20.60;56.37;100106.50;5069895;28;20110;-23
2021/07/23 03:45:01;;;;;;;10.98;7.03;;;;;;;20.30;57.06;100105.63;5052092;28;20040;-22
2021/07/23 03:47:26;;;;;;;13.52;7.07;;;;;;;20.38;56.66;100096.88;5070722;28;20508;-22
2021/07/23 03:49:52;;;;;;;11.18;6.63;;;;;;;20.45;56.81;100105.50;5070110;28;20106;-22
2021/07/23 03:52:17;;;;;;;12.18;7.15;;;;;;;20.41;56.85;100099.03;5069844;28;20073;-22
2021/07/23 03:54:43;;;;;;;14.10;6.88;;;;;;;20.66;56.45;100110.78;5069833;28;20028;-22
2021/07/23 03:57:08;;;;;;;13.13;6.88;;;;;;;20.59;56.57;100110.28;5069734;28;20508;-22
2021/07/23 03:59:34;;;;;;;9.30;6.70;;;;;;;20.49;56.89;100113.84;5069764;28;20032;-22
2021/07/23 04:01:59;;;;;;;11.18;7.10;;;;;;;20.56;56.69;100111.63;5069697;28;20506;-22
2021/07/23 04:04:25;;;;;;;12.20;7.35;;;;;;;20.10;58.41;100117.41;5069357;28;20473;-23
2021/07/23 04:06:59;;;;;;;12.60;6.80;;;;;;;20.20;58.10;100108.41;5069566;28;20052;-22
2021/07/23 04:09:28;;;;;;;16.38;7.55;;;;;;;20.44;57.56;100125.53;5069483;28;20464;-23
2021/07/23 04:11:54;;;;;;;14.43;7.35;;;;;;;20.14;58.43;100109.53;5069596;28;20046;-22
2021/07/23 04:14:20;;;;;;;13.15;6.85;;;;;;;20.27;58.11;100108.91;5069648;28;20043;-23
2021/07/23 04:16:46;;;;;;;13.98;7.32;;;;;;;20.42;57.74;100125.03;5069205;28;20028;-22
2021/07/23 04:19:11;;;;;;;13.25;7.28;;;;;;;19.98;58.92;100101.53;5069333;28;20028;-23
2021/07/23 04:21:37;;;;;;;11.80;6.80;;;;;;;20.12;58.88;100106.28;5069248;28;20021;-22
2021/07/23 04:24:02;;;;;;;14.88;8.27;;;;;;;19.72;60.42;100116.28;5069537;28;20024;-22
2021/07/23 04:26:28;;;;;;;16.30;9.57;;;;;;;19.73;60.33;100129.50;5069029;28;20272;-22
2021/07/23 04:28:53;;;;;;;18.05;10.45;;;;;;;19.94;59.44;100124.00;5069226;28;20036;-22
2021/07/23 04:31:19;;;;;;;23.60;13.63;;;;;;;19.61;60.06;100118.97;5069215;28;20043;-22
2021/07/23 04:33:44;;;;;;;14.23;9.95;;;;;;;19.64;59.40;100102.22;5069332;28;20173;-22
2021/07/23 04:36:10;;;;;;;20.15;11.88;;;;;;;19.76;59.41;100125.47;5069085;28;20851;-22
2021/07/23 04:38:35;;;;;;;22.08;13.02;;;;;;;19.99;58.71;100124.78;5068898;28;20036;-22
2021/07/23 04:41:01;;;;;;;18.70;12.75;;;;;;;19.97;58.67;100124.25;5069248;28;20056;-22
2021/07/23 04:43:26;;;;;;;19.50;12.35;;;;;;;20.20;57.39;100124.66;5068852;28;20040;-23
2021/07/23 04:45:52;;;;;;;19.73;14.43;;;;;;;20.08;58.28;100124.97;5069160;28;20025;-22
2021/07/23 04:48:17;;;;;;;21.05;14.88;;;;;;;20.36;58.11;100123.44;5068729;28;20037;-22
2021/07/23 04:50:43;;;;;;;21.70;15.35;;;;;;;20.42;57.98;100121.50;5068355;28;20842;-23
2021/07/23 04:53:08;;;;;;;23.83;15.77;;;;;;;20.38;57.95;100126.69;5068740;28;20028;-22
2021/07/23 04:55:36;;;;;;;28.38;16.60;;;;;;;20.35;57.99;100121.84;5068693;28;20024;-23
2021/07/23 04:58:01;;;;;;;25.73;16.60;;;;;;;20.45;57.15;100116.34;5068821;28;20035;-22
2021/07/23 05:00:27;;;;;;;21.38;15.30;;;;;;;20.38;56.71;100106.91;5068293;28;20036;-23
2021/07/23 05:02:53;;;;;;;18.90;14.88;;;;;;;20.46;56.17;100106.31;5068536;28;20028;-22
2021/07/23 05:05:19;;;;;;;25.95;16.85;;;;;;;20.33;56.35;100086.09;5068601;28;20503;-23
2021/07/23 05:07:44;;;;;;;24.05;16.17;;;;;;;20.68;56.04;100114.00;5068498;28;20064;-22
2021/07/23 05:10:10;;;;;;;23.02;16.23;;;;;;;20.86;55.78;100116.00;5068426;28;20462;-23
2021/07/23 05:12:37;;;;;;;26.30;15.48;;;;;;;20.89;55.11;100113.81;5068482;28;20028;-22
2021/07/23 05:15:04;;;;;;;20.75;15.40;;;;;;;20.64;55.54;100102.13;5050592;28;20473;-22
2021/07/23 05:17:30;;;;;;;18.23;13.52;;;;;;;20.77;55.56;100104.16;5068431;28;20500;-22
2021/07/23 05:19:55;;;;;;;20.85;13.35;;;;;;;21.18;54.46;100117.28;5068318;28;20148;-22
2021/07/23 05:22:21;;;;;;;19.45;13.27;;;;;;;21.10;54.01;100125.25;5068261;28;20021;-22
2021/07/23 05:24:46;;;;;;;18.42;13.88;;;;;;;21.22;54.08;100126.47;5067973;28;20411;-22
2021/07/23 05:27:11;;;;;;;20.08;13.90;;;;;;;21.60;54.00;100118.44;5050559;28;20029;-23
2021/07/23 05:29:37;;;;;;;20.27;13.02;;;;;;;21.98;52.23;100129.31;5068176;28;20040;-23
2021/07/23 05:32:03;;;;;;;17.48;11.95;;;;;;;22.06;51.15;100125.94;5067696;28;20385;-23
2021/07/23 05:34:28;;;;;;;16.48;11.95;;;;;;;22.46;51.31;100137.34;5066917;28;20568;-23
2021/07/23 05:36:56;;;;;;;14.50;11.07;;;;;;;22.42;50.01;100130.88;5068444;28;20051;-22
2021/07/23 05:39:21;;;;;;;14.52;9.38;;;;;;;22.49;49.25;100137.84;5067592;28;20032;-22
2021/07/23 05:41:47;;;;;;;12.70;8.65;;;;;;;22.19;49.77;100118.16;5067924;28;20485;-22
2021/07/23 05:44:12;;;;;;;13.65;8.85;;;;;;;22.12;50.58;100140.28;5067616;28;20033;-22
2021/07/23 05:46:38;;;;;;;15.23;10.18;;;;;;;22.30;50.28;100135.97;5067409;28;20036;-23
2021/07/23 05:49:04;;;;;;;12.98;8.95;;;;;;;22.53;49.55;100138.88;5067585;28;20553;-22
2021/07/23 05:51:30;;;;;;;12.50;8.85;;;;;;;22.67;49.92;100123.41;5067492;28;20024;-22
2021/07/23 05:53:55;;;;;;;11.23;8.23;;;;;;;23.08;48.93;100139.00;5067388;28;20111;-22
2021/07/23 05:56:21;;;;;;;11.20;8.10;;;;;;;22.86;48.53;100121.44;5067576;28;20032;-23
2021/07/23 05:58:46;;;;;;;14.77;8.82;;;;;;;23.19;48.69;100123.28;5067584;28;20025;-23
2021/07/23 06:01:12;;;;;;;20.30;12.05;;;;;;;23.39;48.79;100131.06;5067354;28;20025;-23
2021/07/23 06:03:37;;;;;;;10.07;7.45;;;;;;;23.53;47.79;100135.69;5067810;28;20044;-22
2021/07/23 06:06:03;;;;;;;13.35;9.15;;;;;;;23.39;47.68;100114.72;5067433;28;20423;-22
2021/07/23 06:08:29;;;;;;;12.20;7.25;;;;;;;23.25;48.25;100111.22;5067339;28;20093;-23
2021/07/23 06:10:55;;;;;;;10.07;6.82;;;;;;;23.67;47.80;100118.22;5067381;28;20115;-22
2021/07/23 06:13:20;;;;;;;11.00;6.80;;;;;;;23.70;47.24;100105.94;5067338;28;20043;-22
2021/07/23 06:15:45;;;;;;;9.02;6.15;;;;;;;23.54;48.09;100120.97;5067223;28;20021;-22
2021/07/23 06:18:11;;;;;;;11.98;6.53;;;;;;;23.91;47.36;100122.66;5067312;28;20047;-22
2021/07/23 06:20:36;;;;;;;10.25;6.05;;;;;;;24.20;46.71;100124.97;5067332;28;20032;-22
2021/07/23 06:23:02;;;;;;;10.52;6.15;;;;;;;24.53;44.82;100126.69;5067352;28;20047;-22
2021/07/23 06:25:27;;;;;;;9.65;6.38;;;;;;;24.63;44.75;100105.41;5067392;28;20089;-22
2021/07/23 06:27:53;;;;;;;13.10;6.97;;;;;;;24.90;44.89;100135.56;5067099;28;20032;-22
2021/07/23 06:30:18;;;;;;;8.30;5.53;;;;;;;25.08;44.57;100139.97;5067155;28;20393;-22
2021/07/23 06:32:44;;;;;;;13.85;5.25;;;;;;;24.86;43.19;100136.16;5067683;28;20052;-22
2021/07/23 06:35:09;;;;;;;8.60;5.03;;;;;;;24.86;42.36;100122.53;5066888;28;20020;-22
2021/07/23 06:37:36;;;;;;;10.02;5.70;;;;;;;25.24;42.89;100134.94;5066897;28;20025;-22
2021/07/23 06:40:02;;;;;;;9.13;5.30;;;;;;;25.03;42.71;100129.22;5066912;28;20108;-22
2021/07/23 06:42:28;;;;;;;11.65;5.72;;;;;;;25.39;42.77;100139.16;5066773;28;20021;-22
2021/07/23 06:44:53;;;;;;;9.90;5.20;;;;;;;25.51;41.73;100128.44;5068253;28;20032;-22
2021/07/23 06:47:19;;;;;;;8.75;5.35;;;;;;;25.31;42.33;100143.47;5071533;28;20061;-22
2021/07/23 06:49:45;;;;;;;7.53;5.07;;;;;;;25.26;42.25;100133.50;5070748;28;20048;-23
2021/07/23 06:52:10;;;;;;;7.43;5.00;;;;;;;25.08;41.80;100120.88;5070737;28;20035;-22
2021/07/23 06:54:36;;;;;;;9.82;4.80;;;;;;;25.09;41.67;100127.13;5070674;28;20477;-22
2021/07/23 06:57:05;;;;;;;11.82;5.18;;;;;;;25.46;41.68;100140.31;5070980;28;20035;-23
2021/07/23 06:59:32;;;;;;;9.95;5.05;;;;;;;25.96;41.40;100133.66;5070888;28;20025;-23
2021/07/23 07:01:59;;;;;;;8.50;4.63;;;;;;;26.05;40.38;100133.66;5070868;28;20024;-22
2021/07/23 07:04:24;;;;;;;9.20;4.82;;;;;;;25.58;39.50;100131.50;5070619;28;20051;-22
2021/07/23 07:06:50;;;;;;;7.38;4.60;;;;;;;25.84;39.94;100136.19;5070838;28;20032;-22
2021/07/23 07:09:15;;;;;;;7.32;4.53;;;;;;;25.99;39.83;100138.50;5036152;28;20040;-23
2021/07/23 07:11:41;;;;;;;8.13;5.15;;;;;;;25.96;39.38;100138.34;5070711;28;20082;-22
2021/07/23 07:14:06;;;;;;;8.25;5.15;;;;;;;25.83;41.29;100118.22;5070655;28;20040;-22
2021/07/23 07:16:32;;;;;;;9.38;6.13;;;;;;;26.27;40.55;100127.25;5070526;28;20506;-22
2021/07/23 07:18:57;;;;;;;10.32;5.68;;;;;;;26.65;40.53;100137.53;5070637;28;20024;-22
2021/07/23 07:21:23;;;;;;;10.30;7.15;;;;;;;26.39;41.51;100129.31;5070745;28;20035;-24
2021/07/23 07:23:48;;;;;;;10.38;6.40;;;;;;;26.43;42.32;100131.09;5070444;28;20032;-22
2021/07/23 07:26:14;;;;;;;10.48;6.97;;;;;;;26.91;38.57;100118.31;5070754;28;20024;-22
2021/07/23 07:28:39;;;;;;;8.70;6.05;;;;;;;26.61;40.79;100136.56;5070487;28;20041;-22
2021/07/23 07:31:05;;;;;;;9.52;6.28;;;;;;;26.65;37.98;100126.59;5070435;28;20478;-22
2021/07/23 07:33:30;;;;;;;10.15;5.97;;;;;;;27.08;38.45;100120.16;5070352;28;20032;-22
2021/07/23 07:35:59;;;;;;;9.27;5.47;;;;;;;27.15;40.57;100123.16;5070278;28;20064;-22
2021/07/23 07:38:24;;;;;;;8.70;6.45;;;;;;;27.28;39.79;100120.56;5069918;28;20032;-22
2021/07/23 07:40:50;;;;;;;14.57;6.97;;;;;;;26.60;41.62;100102.13;5070130;28;20078;-22
2021/07/23 07:43:15;;;;;;;10.10;6.95;;;;;;;27.27;41.24;100125.25;5070275;28;20114;-22
2021/07/23 07:45:41;;;;;;;11.23;6.43;;;;;;;27.09;39.48;100115.47;5070018;28;20024;-22
2021/07/23 07:48:06;;;;;;;9.68;5.72;;;;;;;26.65;39.33;100118.38;5065914;28;20094;-22
2021/07/23 07:50:32;;;;;;;11.35;6.32;;;;;;;26.57;40.13;100108.22;5058974;28;20053;-22
2021/07/23 07:52:57;;;;;;;10.48;6.38;;;;;;;26.60;38.50;100099.38;5060062;28;20033;-22
2021/07/23 07:55:23;;;;;;;10.90;5.68;;;;;;;26.89;39.60;100106.06;5056652;28;20021;-22
2021/07/23 07:57:48;;;;;;;11.10;6.30;;;;;;;26.76;42.08;100111.41;5058237;28;20626;-22
2021/07/23 08:00:14;;;;;;;9.27;5.82;;;;;;;27.03;39.52;100103.91;5060571;28;20839;-22
2021/07/23 08:02:40;;;;;;;9.43;5.30;;;;;;;27.07;39.56;100110.31;5058936;28;20024;-22
2021/07/23 08:05:06;;;;;;;7.18;5.13;;;;;;;26.71;39.54;100108.88;5058399;28;20028;-22
2021/07/23 08:07:33;;;;;;;10.13;5.30;;;;;;;26.89;38.21;100112.34;5042051;28;20025;-22
2021/07/23 08:10:02;;;;;;;7.57;5.20;;;;;;;27.15;38.53;100101.28;5058870;28;20728;-22
2021/07/23 08:12:32;;;;;;;9.48;5.65;;;;;;;27.25;40.67;100079.03;5058061;28;20029;-22
2021/07/23 08:15:00;;;;;;;11.15;5.80;;;;;;;27.42;36.09;100091.00;5059080;28;20044;-23
2021/07/23 08:18:19;;;;;;;7.43;4.82;;;;;;;27.58;37.29;100097.53;5058558;28;20032;-22
2021/07/23 08:20:46;;;;;;;8.55;6.03;;;;;;;27.21;37.29;100094.47;5058641;28;20094;-22
2021/07/23 08:23:11;;;;;;;8.48;5.38;;;;;;;27.63;36.84;100091.84;5059358;28;20778;-22
2021/07/23 08:25:37;;;;;;;9.27;5.43;;;;;;;27.46;36.50;100091.94;5059093;28;20027;-22
2021/07/23 08:28:03;;;;;;;8.32;5.15;;;;;;;27.13;39.24;100098.06;5060276;28;20029;-22
2021/07/23 08:30:28;;;;;;;7.90;4.55;;;;;;;27.43;36.68;100089.88;5058813;28;20062;-22
2021/07/23 08:32:54;;;;;;;9.07;4.45;;;;;;;28.07;35.81;100091.53;5056959;28;20040;-22
2021/07/23 08:35:19;;;;;;;7.68;4.88;;;;;;;28.15;34.88;100076.94;5056809;28;20436;-22
2021/07/23 08:37:44;;;;;;;16.95;10.63;;;;;;;27.78;34.99;100084.16;5048983;28;20463;-22
2021/07/23 08:40:11;;;;;;;8.45;5.38;;;;;;;27.43;35.72;100078.94;5049236;28;20036;-22
2021/07/23 08:42:36;;;;;;;8.27;4.60;;;;;;;27.69;35.69;100070.53;5048736;28;20036;-22
2021/07/23 08:45:04;;;;;;;11.43;5.03;;;;;;;27.78;38.01;100075.94;5031361;28;20025;-22
2021/07/23 08:47:29;;;;;;;6.68;4.75;;;;;;;27.99;34.56;100065.00;5049159;28;20032;-22
2021/07/23 08:49:55;;;;;;;6.53;4.53;;;;;;;27.94;33.67;100066.00;5048613;28;20057;-22
2021/07/23 08:52:39;;;;;;;7.15;4.15;;;;;;;27.61;34.55;100074.16;5048756;28;20041;-22
2021/07/23 08:55:05;;;;;;;8.13;4.68;;;;;;;27.93;33.54;100052.63;5048646;28;20036;-22
2021/07/23 08:57:31;;;;;;;6.90;4.20;;;;;;;28.59;31.93;100068.31;5048840;28;20116;-22
2021/07/23 08:59:56;;;;;;;10.02;4.47;;;;;;;28.90;32.97;100070.50;5048755;28;20037;-22
2021/07/23 09:02:22;;;;;;;8.63;4.70;;;;;;;28.44;33.93;100067.78;5048693;28;20033;-22
2021/07/23 09:04:47;;;;;;;9.77;4.40;;;;;;;28.55;32.66;100059.16;5048196;28;20401;-22
2021/07/23 09:07:17;;;;;;;6.63;4.50;;;;;;;28.35;32.57;100064.31;5047697;28;20025;-22
2021/07/23 09:10:38;;;;;;;8.00;4.45;;;;;;;28.40;32.69;100066.03;5048301;28;20484;-22
2021/07/23 09:13:05;;;;;;;6.68;4.40;;;;;;;28.44;32.70;100045.84;5048380;28;20407;-22
2021/07/23 09:15:37;;;;;;;9.05;5.05;;;;;;;28.91;31.80;100065.81;5048363;28;20465;-22
2021/07/23 09:18:04;;;;;;;7.10;4.25;;;;;;;28.67;31.73;100053.69;5048357;28;20032;-22
2021/07/23 09:20:29;;;;;;;7.13;4.45;;;;;;;28.80;32.94;100057.25;5048151;28;20385;-22
2021/07/23 09:22:59;;;;;;;9.95;4.72;;;;;;;29.00;33.24;100061.03;5048295;28;20083;-22
2021/07/23 09:25:51;;;;;;;6.32;4.20;;;;;;;29.36;32.08;100057.47;5048191;28;20036;-22
2021/07/23 09:28:27;;;;;;;7.00;4.18;;;;;;;29.39;32.19;100039.50;5043462;28;20033;-22
2021/07/23 09:30:54;;;;;;;6.90;4.35;;;;;;;29.09;31.20;100052.66;5048313;28;20825;-23
2021/07/23 09:33:39;;;;;;;6.05;4.22;;;;;;;28.71;31.54;100049.13;5048403;28;20083;-23
2021/07/23 09:36:11;;;;;;;8.73;4.72;;;;;;;28.64;34.31;100040.63;5047805;28;20025;-22
2021/07/23 09:38:37;;;;;;;8.07;4.75;;;;;;;28.98;33.07;100044.09;5047917;28;20033;-22
2021/07/23 09:41:03;;;;;;;7.75;4.07;;;;;;;29.01;32.49;100025.00;5047973;28;20033;-22
2021/07/23 09:43:33;;;;;;;5.82;3.55;;;;;;;28.75;32.56;100010.78;5048243;28;20809;-22
2021/07/23 09:46:16;;;;;;;7.80;4.20;;;;;;;29.12;30.98;100033.59;5047853;28;20044;-22
2021/07/23 09:48:42;;;;;;;10.00;4.28;;;;;;;29.12;33.72;100022.63;5047267;28;20033;-22
2021/07/23 09:51:34;;;;;;;8.20;4.38;;;;;;;29.50;32.18;100028.81;5047736;28;20057;-22
2021/07/23 09:54:40;;;;;;;8.50;4.78;;;;;;;29.10;32.58;100019.38;5047215;28;20974;-22
2021/07/23 09:57:06;;;;;;;7.00;4.00;;;;;;;28.73;33.29;100022.13;5047663;28;20052;-22
2021/07/23 09:59:44;;;;;;;6.90;4.30;;;;;;;28.65;33.67;100014.81;5029689;28;20029;-22
2021/07/23 10:02:16;;;;;;;6.90;3.90;;;;;;;28.75;34.87;100011.63;5029703;28;20028;-22
2021/07/23 10:05:05;;;;;;;7.30;4.22;;;;;;;29.04;32.86;100007.81;5047293;28;20718;-22
2021/07/23 10:07:37;;;;;;;8.98;4.57;;;;;;;28.94;32.28;100024.75;5047187;28;20066;-22
2021/07/23 10:10:03;;;;;;;5.72;3.78;;;;;;;28.96;31.96;100006.00;5029794;28;20585;-22
2021/07/23 10:12:29;;;;;;;6.20;4.40;;;;;;;29.73;31.34;100020.88;5012833;28;20112;-22
2021/07/23 10:14:54;;;;;;;5.93;3.97;;;;;;;29.94;30.79;100015.19;5013400;28;20025;-22
2021/07/23 10:17:20;;;;;;;6.35;4.45;;;;;;;30.00;30.64;100020.09;5013105;28;20036;-22
2021/07/23 10:19:45;;;;;;;8.55;4.35;;;;;;;29.71;30.04;100013.00;5046994;28;20032;-23
2021/07/23 10:22:11;;;;;;;6.82;4.25;;;;;;;29.61;30.00;100013.47;5047220;28;20029;-22
2021/07/23 10:24:37;;;;;;;7.45;4.00;;;;;;;29.78;29.40;100006.91;5029315;28;20037;-22
2021/07/23 10:27:06;;;;;;;7.80;3.80;;;;;;;29.46;30.64;100006.72;5047136;28;20036;-22
2021/07/23 10:29:41;;;;;;;5.95;4.05;;;;;;;29.75;30.79;100002.09;5029444;28;20040;-22
2021/07/23 10:32:23;;;;;;;5.97;3.85;;;;;;;30.62;28.60;100004.00;5046904;28;20029;-22
2021/07/23 10:34:49;;;;;;;6.88;3.78;;;;;;;29.97;29.60;99998.78;5029354;28;20086;-22
2021/07/23 10:37:29;;;;;;;5.90;4.20;;;;;;;30.19;29.65;100010.34;5047189;28;20029;-22
2021/07/23 10:40:11;;;;;;;7.20;3.85;;;;;;;30.42;29.98;100007.81;5046943;28;20032;-22
2021/07/23 10:42:39;;;;;;;6.40;3.80;;;;;;;30.52;29.52;99992.75;5046594;28;20534;-22
2021/07/23 10:45:06;;;;;;;6.53;3.88;;;;;;;31.09;29.39;100005.13;5047394;28;20789;-22
2021/07/23 10:47:36;;;;;;;5.75;3.58;;;;;;;31.29;28.61;99994.16;5047027;28;20949;-22
2021/07/23 10:50:03;;;;;;;7.97;4.20;;;;;;;31.09;30.27;99985.84;5046612;28;20492;-22
2021/07/23 10:52:34;;;;;;;6.28;3.78;;;;;;;31.24;27.25;99993.28;5046997;28;20040;-22
2021/07/23 10:55:20;;;;;;;6.78;4.07;;;;;;;30.91;27.21;99984.66;5046795;28;20033;-22
2021/07/23 10:58:05;;;;;;;5.57;3.85;;;;;;;31.33;26.48;99978.50;5029206;28;20033;-22
2021/07/23 11:00:46;;;;;;;5.88;3.95;;;;;;;31.67;26.06;99976.06;5046554;28;20490;-22
2021/07/23 11:03:37;;;;;;;6.63;4.30;;;;;;;32.40;25.22;99969.53;5047255;28;20139;-22
2021/07/23 11:06:22;;;;;;;7.00;3.78;;;;;;;32.83;23.84;99959.19;5046920;28;20025;-22
2021/07/23 11:08:51;;;;;;;5.43;3.70;;;;;;;32.16;24.77;99959.69;5046620;28;20029;-22
2021/07/23 11:11:17;;;;;;;6.72;4.00;;;;;;;32.96;24.91;99967.25;5046663;28;20024;-23
2021/07/23 11:13:43;;;;;;;5.85;3.70;;;;;;;32.68;25.52;99951.84;5028678;28;20036;-22
2021/07/23 11:16:18;;;;;;;5.47;4.07;;;;;;;32.22;24.22;99940.84;5046560;28;20025;-22
2021/07/23 11:18:57;;;;;;;7.10;4.78;;;;;;;32.19;26.42;99955.38;5046528;28;20044;-22
2021/07/23 11:21:23;;;;;;;6.30;3.95;;;;;;;32.46;26.32;99952.66;5046347;28;20086;-22